createdAt,value
2022-10-06T00:09:37.069Z,3.50
2022-10-06T00:19:41.682Z,3.30
2022-10-06T00:29:44.896Z,3.10
2022-10-06T00:39:49.468Z,2.90
2022-10-06T00:49:54.217Z,2.80
2022-10-06T00:59:59.259Z,2.70
2022-10-06T01:10:02.731Z,2.50
2022-10-06T01:20:11.163Z,2.40
2022-10-06T01:30:20.445Z,2.40
2022-10-06T01:40:25.613Z,2.40
2022-10-06T01:50:30.506Z,2.30
2022-10-06T02:00:33.952Z,2.30
2022-10-06T02:10:38.709Z,2.30
2022-10-06T02:20:47.781Z,2.30
2022-10-06T02:30:52.507Z,2.30
2022-10-06T02:40:56.912Z,2.10
2022-10-06T02:51:03.282Z,2.10
2022-10-06T03:01:09.426Z,2.10
2022-10-06T03:11:14.915Z,2.00
2022-10-06T03:21:19.515Z,2.00
2022-10-06T03:31:26.627Z,2.00
2022-10-06T03:41:32.864Z,2.10
2022-10-06T03:51:41.064Z,2.10
2022-10-06T04:01:53.244Z,2.10
2022-10-06T04:12:12.898Z,2.10
2022-10-06T04:22:18.800Z,2.00
2022-10-06T04:32:24.506Z,2.00
2022-10-06T04:42:34.639Z,1.90
2022-10-06T04:52:41.010Z,1.80
2022-10-06T05:02:44.418Z,1.80
2022-10-06T05:12:49.405Z,1.80
2022-10-06T05:22:52.712Z,2.00
2022-10-06T05:32:57.553Z,2.30
2022-10-06T05:43:01.253Z,2.60
2022-10-06T05:53:06.293Z,3.00
2022-10-06T06:03:10.656Z,3.50
2022-10-06T06:13:21.325Z,4.30
2022-10-06T06:23:34.652Z,5.60
2022-10-06T06:33:41.759Z,7.30
2022-10-06T06:43:46.930Z,9.30
2022-10-06T06:54:02.685Z,11.70
2022-10-06T07:04:08.034Z,17.30
2022-10-06T07:14:14.520Z,21.00
2022-10-06T07:24:40.082Z,22.20
2022-10-06T07:34:44.870Z,23.40
2022-10-06T07:45:08.908Z,21.40
2022-10-06T07:55:18.294Z,25.00
2022-10-06T08:05:41.992Z,30.00
2022-10-06T08:15:47.472Z,30.20
2022-10-06T08:25:53.669Z,33.00
2022-10-06T08:36:04.953Z,27.80
2022-10-06T08:46:09.767Z,33.20
2022-10-06T08:56:19.251Z,35.30
2022-10-06T09:06:42.520Z,31.60
2022-10-06T09:16:54.824Z,28.20
2022-10-06T09:27:00.209Z,27.80
2022-10-06T09:37:08.011Z,25.90
2022-10-06T09:47:45.228Z,24.20
2022-10-06T09:57:52.667Z,25.70
2022-10-06T10:08:10.157Z,26.80
2022-10-06T10:18:17.153Z,36.30
2022-10-06T10:28:47.467Z,41.00
2022-10-06T10:38:52.656Z,43.90
2022-10-06T10:49:05.130Z,39.10
2022-10-06T10:59:18.227Z,37.10
2022-10-06T11:09:29.332Z,44.30
2022-10-06T11:19:48.755Z,40.90
2022-10-06T11:30:04.262Z,46.80
2022-10-06T11:40:31.714Z,47.90
2022-10-06T11:50:36.632Z,48.40
2022-10-06T12:00:50.804Z,50.20
2022-10-06T12:10:54.084Z,48.90
2022-10-06T12:21:11.669Z,43.20
2022-10-06T12:31:38.474Z,45.60
2022-10-06T12:42:03.845Z,35.90
2022-10-06T12:52:38.152Z,28.10
2022-10-06T13:02:45.712Z,25.50
2022-10-06T13:12:52.094Z,27.30
2022-10-06T13:23:01.855Z,34.00
2022-10-06T13:33:05.401Z,36.40
2022-10-06T13:43:19.507Z,37.80
2022-10-06T13:53:26.515Z,39.40
2022-10-06T14:13:48.520Z,39.20
2022-10-06T14:23:54.474Z,32.00
2022-10-06T14:33:58.066Z,27.30
2022-10-06T14:44:06.260Z,25.30
2022-10-06T14:54:10.840Z,23.50
2022-10-06T15:04:18.836Z,21.30
2022-10-06T15:14:23.101Z,20.30
2022-10-06T15:24:27.864Z,19.60
2022-10-06T15:34:34.397Z,18.90
2022-10-06T15:44:39.203Z,18.40
2022-10-06T15:54:43.829Z,18.00
2022-10-06T16:05:06.078Z,17.50
2022-10-06T16:15:10.364Z,17.20
2022-10-06T16:25:15.326Z,16.60
2022-10-06T16:35:22.984Z,16.10
2022-10-06T16:45:30.927Z,15.80
2022-10-06T16:55:34.165Z,15.40
2022-10-06T17:05:39.343Z,14.90
2022-10-06T17:15:42.599Z,14.20
2022-10-06T17:25:47.296Z,13.70
2022-10-06T17:35:51.819Z,13.40
2022-10-06T17:45:56.544Z,13.30
2022-10-06T17:56:03.975Z,13.40
2022-10-06T18:06:11.590Z,13.40
2022-10-06T18:16:17.733Z,13.60
2022-10-06T18:26:22.656Z,13.70
2022-10-06T18:36:26.553Z,13.40
2022-10-06T18:46:58.157Z,13.00
2022-10-06T18:57:01.538Z,12.70
2022-10-06T19:07:06.473Z,12.60
2022-10-06T19:17:14.035Z,12.40
2022-10-06T19:27:24.392Z,12.20
2022-10-06T19:37:28.658Z,12.10
2022-10-06T19:47:33.304Z,12.00
2022-10-06T19:57:36.786Z,11.80
2022-10-06T20:07:42.359Z,11.70
2022-10-06T20:17:47.277Z,11.70
2022-10-06T20:27:52.163Z,11.70
2022-10-06T20:37:55.399Z,11.70
2022-10-06T20:48:00.213Z,11.70
2022-10-06T20:58:04.247Z,11.60
2022-10-06T21:08:08.841Z,11.40
2022-10-06T21:18:12.094Z,11.40
2022-10-06T21:28:18.526Z,11.40
2022-10-06T21:38:21.802Z,11.40
2022-10-06T21:48:26.444Z,11.40
2022-10-06T21:58:29.693Z,11.30
2022-10-06T22:08:34.909Z,11.00
2022-10-06T22:18:39.741Z,10.80
2022-10-06T22:28:49.757Z,10.60
2022-10-06T22:38:53.156Z,10.60
2022-10-06T22:48:58.302Z,10.50
2022-10-06T22:59:02.279Z,10.50
2022-10-06T23:09:06.956Z,10.20
2022-10-06T23:19:11.702Z,9.90
2022-10-06T23:29:16.528Z,9.30
2022-10-06T23:39:19.767Z,8.90
2022-10-06T23:49:24.403Z,8.40
2022-10-06T23:59:28.386Z,7.80
